Time;durP1;ratioP1;P1;durP2;ratioP2;P2;SDS_P1;SDS_P2;PMS_P1;PMS_P2;Temp;Humidity;BMP_temperature;BMP_pressure;BME280_temperature;BME280_humidity;BME280_pressure;Samples;Min_cycle;Max_cycle;Signal;HPM_P1;HPM_P2
2022/05/21 00:00:46;;;;;;;10.63;8.83;;;;;;;;;;5029833;28;20434;-78
2022/05/21 00:03:13;;;;;;;11.87;8.90;;;;;;;;;;5030225;28;21018;-79
2022/05/21 00:05:41;;;;;;;10.40;9.10;;;;;;;;;;5012352;28;20442;-80
2022/05/21 00:08:09;;;;;;;10.20;8.57;;;;;;;;;;5011488;28;20489;-79
2022/05/21 00:10:38;;;;;;;8.83;7.93;;;;;;;;;;4994814;28;20450;-78
2022/05/21 00:13:06;;;;;;;10.10;8.77;;;;;;;;;;4998035;28;20454;-78
2022/05/21 00:15:34;;;;;;;11.73;8.30;;;;;;;;;;5016138;28;20453;-79
2022/05/21 00:18:02;;;;;;;9.63;8.20;;;;;;;;;;4992659;28;20431;-80
2022/05/21 00:23:12;;;;;;;10.70;8.37;;;;;;;;;;4970280;28;20491;-79
2022/05/21 00:25:41;;;;;;;9.17;8.17;;;;;;;;;;4971174;28;20456;-81
2022/05/21 00:28:08;;;;;;;7.90;7.10;;;;;;;;;;4969484;28;20464;-79
2022/05/21 00:30:36;;;;;;;8.63;7.73;;;;;;;;;;4972615;28;20445;-79
2022/05/21 00:33:03;;;;;;;10.27;9.20;;;;;;;;;;4972553;28;20440;-78
2022/05/21 00:35:30;;;;;;;12.13;8.80;;;;;;;;;;4976494;28;20438;-79
2022/05/21 00:37:58;;;;;;;11.50;7.70;;;;;;;;;;4976593;28;20471;-79
2022/05/21 00:40:25;;;;;;;10.83;9.80;;;;;;;;;;4970702;28;20436;-78
2022/05/21 00:42:54;;;;;;;11.87;9.93;;;;;;;;;;4968953;28;20497;-78
2022/05/21 00:45:21;;;;;;;12.20;10.10;;;;;;;;;;4970171;28;20934;-78
2022/05/21 00:47:48;;;;;;;11.90;9.50;;;;;;;;;;4974014;28;20461;-80
2022/05/21 00:50:16;;;;;;;10.93;9.80;;;;;;;;;;4974087;28;20449;-79
2022/05/21 00:52:43;;;;;;;11.30;9.30;;;;;;;;;;4976336;28;20444;-80
2022/05/21 00:55:14;;;;;;;12.87;10.07;;;;;;;;;;4976485;28;20875;-78
2022/05/21 00:57:44;;;;;;;10.10;9.03;;;;;;;;;;4979775;28;20460;-79
2022/05/21 01:00:13;;;;;;;11.50;9.97;;;;;;;;;;4980572;28;20451;-80
2022/05/21 01:02:42;;;;;;;12.57;11.23;;;;;;;;;;4973774;28;20487;-77
2022/05/21 01:05:11;;;;;;;11.03;9.80;;;;;;;;;;4973687;28;20437;-79
2022/05/21 01:07:38;;;;;;;13.60;11.50;;;;;;;;;;4974294;28;20503;-78
2022/05/21 01:10:08;;;;;;;12.50;10.90;;;;;;;;;;4974453;28;20453;-79
2022/05/21 01:12:38;;;;;;;11.80;9.93;;;;;;;;;;4973599;28;20539;-82
2022/05/21 01:15:07;;;;;;;10.87;9.67;;;;;;;;;;4975841;28;20772;-78
2022/05/21 01:17:36;;;;;;;12.67;10.43;;;;;;;;;;4976062;28;20874;-79
2022/05/21 01:20:05;;;;;;;11.70;9.90;;;;;;;;;;4978619;28;20470;-79
2022/05/21 01:22:40;;;;;;;15.63;10.50;;;;;;;;;;4980090;28;20488;-79
2022/05/21 01:25:08;;;;;;;11.10;8.93;;;;;;;;;;4973096;28;20456;-79
2022/05/21 01:27:35;;;;;;;14.70;9.70;;;;;;;;;;4973451;28;21015;-78
2022/05/21 01:30:04;;;;;;;12.30;9.60;;;;;;;;;;4973647;28;20796;-79
2022/05/21 01:32:31;;;;;;;13.80;10.40;;;;;;;;;;4973064;28;20445;-81
2022/05/21 01:34:59;;;;;;;11.80;9.30;;;;;;;;;;4973628;28;20454;-79
2022/05/21 01:37:26;;;;;;;13.13;8.57;;;;;;;;;;4975509;28;20992;-77
2022/05/21 01:39:54;;;;;;;9.43;8.43;;;;;;;;;;4975430;28;20447;-79
2022/05/21 01:42:22;;;;;;;11.63;8.20;;;;;;;;;;4979687;28;20494;-78
2022/05/21 01:44:52;;;;;;;9.73;8.17;;;;;;;;;;4979715;28;20428;-80
2022/05/21 01:47:19;;;;;;;9.90;7.80;;;;;;;;;;4953420;28;20461;-80
2022/05/21 01:49:47;;;;;;;10.87;8.50;;;;;;;;;;4953924;28;20449;-80
2022/05/21 01:52:14;;;;;;;11.83;8.50;;;;;;;;;;4954045;28;20536;-78
2022/05/21 01:54:42;;;;;;;10.33;8.07;;;;;;;;;;4954338;28;20668;-80
2022/05/21 01:57:11;;;;;;;9.20;7.07;;;;;;;;;;4957172;28;20480;-79
2022/05/21 01:59:39;;;;;;;9.60;7.00;;;;;;;;;;4974735;28;20441;-81
2022/05/21 02:02:07;;;;;;;9.60;7.57;;;;;;;;;;4975027;28;20528;-79
2022/05/21 02:04:34;;;;;;;10.10;8.03;;;;;;;;;;4979125;28;20944;-80
2022/05/21 02:07:01;;;;;;;10.23;7.00;;;;;;;;;;4979340;28;20790;-80
2022/05/21 02:09:28;;;;;;;7.37;6.57;;;;;;;;;;4972268;28;20456;-77
2022/05/21 02:11:55;;;;;;;9.47;5.93;;;;;;;;;;4972693;28;20451;-80
2022/05/21 02:14:24;;;;;;;7.40;5.77;;;;;;;;;;4972893;28;20814;-78
2022/05/21 02:16:51;;;;;;;6.87;5.77;;;;;;;;;;4973352;28;20481;-78
2022/05/21 02:19:18;;;;;;;8.90;5.67;;;;;;;;;;4972944;28;20795;-79
2022/05/21 02:21:45;;;;;;;9.17;5.83;;;;;;;;;;5017387;28;20443;-80
2022/05/21 02:24:13;;;;;;;8.67;5.40;;;;;;;;;;5018172;28;20481;-79
2022/05/21 02:26:40;;;;;;;6.67;4.77;;;;;;;;;;5012248;28;20451;-78
2022/05/21 02:29:08;;;;;;;5.30;4.80;;;;;;;;;;4993877;28;20439;-77
2022/05/21 02:31:37;;;;;;;5.33;4.70;;;;;;;;;;4994147;28;20497;-78
2022/05/21 02:34:04;;;;;;;7.90;4.70;;;;;;;;;;5011777;28;20667;-79
2022/05/21 02:41:53;;;;;;;5.80;4.13;;;;;;;;;;4997834;28;20522;-79
2022/05/21 02:44:21;;;;;;;3.83;3.43;;;;;;;;;;5017229;28;20806;-78
2022/05/21 02:46:49;;;;;;;3.93;3.20;;;;;;;;;;5017867;28;20459;-79
2022/05/21 02:49:16;;;;;;;5.87;3.00;;;;;;;;;;5030449;28;20446;-79
2022/05/21 02:51:43;;;;;;;4.20;3.30;;;;;;;;;;5030588;28;20457;-80
2022/05/21 02:54:14;;;;;;;3.90;2.93;;;;;;;;;;5030787;28;20438;-78
2022/05/21 02:56:44;;;;;;;6.13;2.90;;;;;;;;;;5031299;28;20462;-78
2022/05/21 02:59:11;;;;;;;4.67;3.17;;;;;;;;;;5009354;28;20462;-78
2022/05/21 03:01:38;;;;;;;3.90;2.73;;;;;;;;;;5013143;28;20443;-81
2022/05/21 03:04:07;;;;;;;8.23;3.50;;;;;;;;;;5012942;28;20490;-78
2022/05/21 03:06:35;;;;;;;4.47;2.47;;;;;;;;;;5016528;28;20508;-77
2022/05/21 03:11:43;;;;;;;4.90;3.20;;;;;;;;;;5028801;28;21010;-78
2022/05/21 03:14:10;;;;;;;6.63;2.60;;;;;;;;;;5030420;28;20445;-80
2022/05/21 03:16:37;;;;;;;7.23;2.83;;;;;;;;;;5030289;28;20480;-79
2022/05/21 03:19:04;;;;;;;4.57;2.70;;;;;;;;;;5030935;28;20446;-79
2022/05/21 03:21:33;;;;;;;3.90;2.23;;;;;;;;;;5026204;28;20474;-79
2022/05/21 03:24:00;;;;;;;5.20;2.60;;;;;;;;;;5012275;28;20491;-77
2022/05/21 03:26:27;;;;;;;5.13;2.60;;;;;;;;;;5012658;28;20454;-80
2022/05/21 03:28:55;;;;;;;4.43;2.43;;;;;;;;;;5016602;28;20449;-78
2022/05/21 03:31:22;;;;;;;3.80;2.10;;;;;;;;;;5017412;28;20480;-80
2022/05/21 03:33:49;;;;;;;2.50;2.00;;;;;;;;;;5010631;28;20431;-79
2022/05/21 03:36:16;;;;;;;5.43;2.20;;;;;;;;;;5009690;28;20976;-78
2022/05/21 03:38:45;;;;;;;3.77;2.27;;;;;;;;;;5010217;28;20473;-79
2022/05/21 03:41:12;;;;;;;4.37;2.33;;;;;;;;;;5010997;28;20446;-79
2022/05/21 03:43:39;;;;;;;6.80;2.67;;;;;;;;;;5009712;28;20483;-79
2022/05/21 03:46:06;;;;;;;4.00;2.40;;;;;;;;;;5012088;28;21002;-79
2022/05/21 03:48:34;;;;;;;6.20;2.07;;;;;;;;;;5012302;28;20453;-80
2022/05/21 03:51:01;;;;;;;6.10;2.57;;;;;;;;;;5015444;28;20427;-78
2022/05/21 03:53:28;;;;;;;4.37;2.27;;;;;;;;;;5016341;28;20769;-80
2022/05/21 03:55:57;;;;;;;3.97;2.70;;;;;;;;;;5010148;28;20960;-80
2022/05/21 03:58:24;;;;;;;5.50;2.17;;;;;;;;;;4992356;28;20435;-81
2022/05/21 04:00:51;;;;;;;8.07;2.10;;;;;;;;;;5010105;28;20443;-78
2022/05/21 04:03:19;;;;;;;3.37;1.70;;;;;;;;;;5010347;28;20490;-81
2022/05/21 04:05:47;;;;;;;4.17;2.10;;;;;;;;;;5009106;28;20443;-79
2022/05/21 04:08:15;;;;;;;6.60;2.33;;;;;;;;;;5012166;28;20443;-78
2022/05/21 04:10:42;;;;;;;4.87;2.13;;;;;;;;;;5011917;28;20561;-78
2022/05/21 04:13:10;;;;;;;5.97;2.27;;;;;;;;;;5015321;28;20439;-77
2022/05/21 04:15:37;;;;;;;5.63;1.80;;;;;;;;;;5016067;28;20439;-78
2022/05/21 04:18:05;;;;;;;3.83;2.00;;;;;;;;;;5026836;28;20453;-79
2022/05/21 04:20:32;;;;;;;4.77;2.50;;;;;;;;;;5028543;28;20469;-78
2022/05/21 04:22:59;;;;;;;4.83;2.23;;;;;;;;;;5029616;28;20481;-79
2022/05/21 04:25:26;;;;;;;2.93;1.83;;;;;;;;;;5029936;28;20449;-79
2022/05/21 04:27:54;;;;;;;4.47;1.93;;;;;;;;;;5029198;28;20468;-81
2022/05/21 04:30:25;;;;;;;3.20;2.30;;;;;;;;;;4991952;28;20440;-79
2022/05/21 04:32:53;;;;;;;9.13;2.10;;;;;;;;;;4991963;28;20451;-79
2022/05/21 04:35:21;;;;;;;3.00;1.77;;;;;;;;;;5009882;28;20444;-80
2022/05/21 04:37:48;;;;;;;3.57;2.07;;;;;;;;;;5015856;28;20987;-80
2022/05/21 04:40:16;;;;;;;5.83;1.80;;;;;;;;;;5010594;28;21008;-81
2022/05/21 04:42:44;;;;;;;7.47;2.10;;;;;;;;;;5009113;28;20447;-80
2022/05/21 04:45:11;;;;;;;2.50;1.80;;;;;;;;;;5009507;28;20792;-77
2022/05/21 04:47:39;;;;;;;4.23;1.73;;;;;;;;;;5009766;28;20982;-81
2022/05/21 04:50:08;;;;;;;4.90;1.80;;;;;;;;;;5009525;28;20808;-79
2022/05/21 04:52:35;;;;;;;2.47;1.80;;;;;;;;;;5010840;28;20466;-79
2022/05/21 04:55:02;;;;;;;3.97;2.10;;;;;;;;;;5011619;28;20443;-79
2022/05/21 04:57:30;;;;;;;9.07;2.17;;;;;;;;;;5014578;28;20467;-78
2022/05/21 04:59:57;;;;;;;2.90;1.80;;;;;;;;;;5015904;28;20442;-79
2022/05/21 05:02:24;;;;;;;3.90;2.27;;;;;;;;;;5025367;28;20434;-77
2022/05/21 05:04:52;;;;;;;5.50;2.43;;;;;;;;;;5028762;28;20514;-79
2022/05/21 05:07:22;;;;;;;9.03;2.53;;;;;;;;;;5028999;28;20462;-81
2022/05/21 05:09:49;;;;;;;6.30;2.60;;;;;;;;;;5029283;28;20462;-80
2022/05/21 05:12:17;;;;;;;6.17;2.60;;;;;;;;;;5028509;28;20457;-80
2022/05/21 05:14:44;;;;;;;6.93;2.90;;;;;;;;;;5011217;28;20493;-77
2022/05/21 05:17:13;;;;;;;7.20;2.47;;;;;;;;;;5011343;28;20468;-80
2022/05/21 05:19:41;;;;;;;4.97;2.80;;;;;;;;;;5013457;28;20472;-79
2022/05/21 05:22:10;;;;;;;5.03;2.37;;;;;;;;;;4998134;28;20442;-79
2022/05/21 05:24:37;;;;;;;9.73;3.27;;;;;;;;;;5010789;28;20479;-80
2022/05/21 05:27:04;;;;;;;3.73;2.30;;;;;;;;;;5008713;28;20878;-80
2022/05/21 05:29:31;;;;;;;6.03;2.83;;;;;;;;;;5009209;28;20874;-80
2022/05/21 05:31:59;;;;;;;4.00;2.37;;;;;;;;;;5009246;28;20793;-81
2022/05/21 05:34:26;;;;;;;5.40;2.33;;;;;;;;;;5011824;28;20445;-79
2022/05/21 05:36:53;;;;;;;6.50;3.07;;;;;;;;;;5013756;28;20488;-78
2022/05/21 05:39:22;;;;;;;4.40;3.00;;;;;;;;;;5014380;28;20448;-79
2022/05/21 05:41:50;;;;;;;4.60;2.67;;;;;;;;;;5017236;28;20784;-80
2022/05/21 05:44:17;;;;;;;7.40;2.80;;;;;;;;;;5018594;28;20490;-79
2022/05/21 05:46:44;;;;;;;8.73;3.10;;;;;;;;;;5025606;28;20460;-80
2022/05/21 05:49:11;;;;;;;7.57;2.67;;;;;;;;;;5031831;28;20435;-81
2022/05/21 05:51:39;;;;;;;5.97;2.73;;;;;;;;;;5032104;28;20459;-77
2022/05/21 05:54:06;;;;;;;9.17;4.30;;;;;;;;;;5031942;28;20448;-80
2022/05/21 05:56:35;;;;;;;7.30;2.60;;;;;;;;;;5032462;28;20462;-78
2022/05/21 06:01:43;;;;;;;4.37;2.63;;;;;;;;;;5013561;28;20520;-78
2022/05/21 06:04:10;;;;;;;7.40;2.80;;;;;;;;;;5015886;28;20482;-78
2022/05/21 06:06:38;;;;;;;6.30;2.97;;;;;;;;;;5019055;28;20947;-78
2022/05/21 06:09:05;;;;;;;7.33;2.80;;;;;;;;;;5024898;28;20449;-78
2022/05/21 06:11:37;;;;;;;6.27;2.80;;;;;;;;;;5014088;28;20456;-75
2022/05/21 06:14:05;;;;;;;5.27;2.73;;;;;;;;;;5031564;28;20468;-75
2022/05/21 06:16:32;;;;;;;4.80;2.40;;;;;;;;;;5031523;28;20494;-73
2022/05/21 06:18:59;;;;;;;5.03;2.90;;;;;;;;;;5031980;28;20413;-74
2022/05/21 06:21:27;;;;;;;3.67;2.70;;;;;;;;;;5018104;28;20510;-78
2022/05/21 06:23:54;;;;;;;7.77;2.90;;;;;;;;;;5013788;28;20494;-76
2022/05/21 06:26:21;;;;;;;5.77;3.23;;;;;;;;;;5014903;28;20469;-79
2022/05/21 06:28:50;;;;;;;4.23;2.90;;;;;;;;;;5018146;28;20461;-79
2022/05/21 06:31:17;;;;;;;8.57;2.70;;;;;;;;;;5015275;28;20439;-80
2022/05/21 06:33:44;;;;;;;8.83;2.67;;;;;;;;;;5011530;28;20476;-81
2022/05/21 06:36:12;;;;;;;8.10;3.07;;;;;;;;;;5011438;28;20444;-82
2022/05/21 06:38:42;;;;;;;5.40;3.03;;;;;;;;;;5011525;28;20406;-78
2022/05/21 06:41:09;;;;;;;4.47;2.57;;;;;;;;;;5011840;28;20873;-78
2022/05/21 06:43:37;;;;;;;7.90;2.50;;;;;;;;;;5011618;28;20834;-78
2022/05/21 06:46:05;;;;;;;9.70;3.90;;;;;;;;;;5013016;28;20463;-77
2022/05/21 06:48:33;;;;;;;5.97;3.00;;;;;;;;;;4996632;28;20962;-78
2022/05/21 06:51:05;;;;;;;8.23;3.60;;;;;;;;;;5017375;28;20902;-77
2022/05/21 06:53:32;;;;;;;7.60;3.40;;;;;;;;;;5020980;28;20488;-77
2022/05/21 06:56:00;;;;;;;11.53;3.03;;;;;;;;;;5030916;28;20566;-77
2022/05/21 06:58:27;;;;;;;4.83;2.80;;;;;;;;;;5030451;28;20438;-75
2022/05/21 07:00:54;;;;;;;10.53;2.90;;;;;;;;;;5030564;28;20446;-77
2022/05/21 07:03:22;;;;;;;8.47;3.33;;;;;;;;;;5031343;28;20831;-77
2022/05/21 07:08:31;;;;;;;8.80;2.70;;;;;;;;;;5011971;28;20406;-76
2022/05/21 07:10:59;;;;;;;7.63;3.60;;;;;;;;;;5014258;28;20815;-76
2022/05/21 07:13:27;;;;;;;9.40;3.67;;;;;;;;;;5017185;28;20844;-76
2022/05/21 07:15:54;;;;;;;6.77;3.20;;;;;;;;;;5014058;28;20530;-77
2022/05/21 07:18:23;;;;;;;7.93;3.17;;;;;;;;;;5010420;28;20933;-78
2022/05/21 07:20:51;;;;;;;6.57;2.87;;;;;;;;;;5010373;28;20481;-77
2022/05/21 07:23:19;;;;;;;5.90;2.97;;;;;;;;;;5010634;28;20525;-77
2022/05/21 07:25:47;;;;;;;10.77;3.70;;;;;;;;;;5010766;28;20458;-80
2022/05/21 07:28:15;;;;;;;7.63;2.73;;;;;;;;;;5011178;28;20783;-77
2022/05/21 07:30:42;;;;;;;11.67;3.33;;;;;;;;;;5012502;28;20450;-77
2022/05/21 07:33:10;;;;;;;5.00;2.80;;;;;;;;;;5013880;28;20867;-77
2022/05/21 07:35:39;;;;;;;12.30;2.97;;;;;;;;;;5016476;28;20440;-76
2022/05/21 07:38:06;;;;;;;5.80;2.57;;;;;;;;;;5013599;28;20443;-77
2022/05/21 07:40:34;;;;;;;5.47;2.87;;;;;;;;;;5010315;28;20450;-76
2022/05/21 07:43:09;;;;;;;6.80;3.03;;;;;;;;;;4992933;28;20443;-75
2022/05/21 07:45:39;;;;;;;8.40;3.40;;;;;;;;;;5010036;28;20516;-77
2022/05/21 07:48:06;;;;;;;12.97;3.20;;;;;;;;;;5010692;28;20443;-76
2022/05/21 07:50:33;;;;;;;8.03;2.77;;;;;;;;;;5010710;28;20469;-76
2022/05/21 07:53:02;;;;;;;5.47;2.10;;;;;;;;;;5012326;28;20458;-78
2022/05/21 07:55:29;;;;;;;6.10;2.90;;;;;;;;;;5013122;28;20430;-80
2022/05/21 07:57:56;;;;;;;8.83;2.60;;;;;;;;;;5016319;28;20712;-78
2022/05/21 08:00:23;;;;;;;7.10;2.70;;;;;;;;;;5013721;28;21079;-78
2022/05/21 08:02:51;;;;;;;5.00;2.17;;;;;;;;;;5009800;28;20440;-76
2022/05/21 08:05:18;;;;;;;6.93;3.10;;;;;;;;;;5009560;28;20483;-77
2022/05/21 08:07:50;;;;;;;6.27;2.67;;;;;;;;;;5010237;28;20459;-78
2022/05/21 08:10:19;;;;;;;4.17;2.20;;;;;;;;;;5010547;28;20447;-77
2022/05/21 08:12:46;;;;;;;7.50;3.10;;;;;;;;;;5010696;28;20782;-78
2022/05/21 08:15:13;;;;;;;6.10;2.77;;;;;;;;;;5011772;28;20475;-77
2022/05/21 08:17:40;;;;;;;6.37;3.13;;;;;;;;;;5012955;28;20461;-77
2022/05/21 08:20:10;;;;;;;7.80;3.97;;;;;;;;;;5015674;28;20462;-77
2022/05/21 08:28:01;;;;;;;5.67;2.20;;;;;;;;;;5027968;28;20430;-76
2022/05/21 08:30:28;;;;;;;6.73;2.83;;;;;;;;;;5029608;28;21022;-77
2022/05/21 08:32:59;;;;;;;9.30;2.93;;;;;;;;;;5029932;28;20650;-76
2022/05/21 08:35:26;;;;;;;9.03;3.17;;;;;;;;;;5014755;28;20462;-77
2022/05/21 08:37:54;;;;;;;4.83;2.13;;;;;;;;;;5011417;28;20475;-77
2022/05/21 08:40:22;;;;;;;8.73;2.77;;;;;;;;;;5013817;28;20457;-77
2022/05/21 08:42:55;;;;;;;7.07;2.80;;;;;;;;;;5015893;28;20450;-76
2022/05/21 08:45:23;;;;;;;8.80;2.77;;;;;;;;;;5011184;28;21029;-76
2022/05/21 08:47:54;;;;;;;5.93;2.80;;;;;;;;;;4991920;28;20463;-77
2022/05/21 08:50:23;;;;;;;5.33;2.70;;;;;;;;;;5009282;28;20640;-77
2022/05/21 08:52:54;;;;;;;5.93;2.50;;;;;;;;;;5009614;28;21152;-77
2022/05/21 08:55:28;;;;;;;7.00;2.70;;;;;;;;;;5009797;28;20795;-78
2022/05/21 08:57:57;;;;;;;5.30;2.20;;;;;;;;;;5011026;28;20479;-76
2022/05/21 09:00:26;;;;;;;4.63;2.33;;;;;;;;;;5011579;28;20466;-77
2022/05/21 09:02:54;;;;;;;4.33;2.20;;;;;;;;;;4996677;28;20501;-77
2022/05/21 09:05:22;;;;;;;6.17;2.60;;;;;;;;;;5015862;28;20482;-77
2022/05/21 09:07:52;;;;;;;6.00;2.60;;;;;;;;;;4996069;28;20521;-76
2022/05/21 09:10:29;;;;;;;7.77;2.40;;;;;;;;;;5013032;28;20443;-77
2022/05/21 09:12:59;;;;;;;5.57;2.43;;;;;;;;;;5013149;28;20437;-77
2022/05/21 09:18:09;;;;;;;6.03;2.37;;;;;;;;;;4996655;28;20475;-78
2022/05/21 09:20:41;;;;;;;5.27;2.43;;;;;;;;;;4995183;28;20459;-77
2022/05/21 09:23:11;;;;;;;4.17;2.30;;;;;;;;;;4978097;28;20444;-77
2022/05/21 09:25:39;;;;;;;5.20;2.43;;;;;;;;;;5014451;28;20492;-78
2022/05/21 09:28:07;;;;;;;4.20;2.57;;;;;;;;;;5019313;28;20791;-77
2022/05/21 09:30:35;;;;;;;4.30;2.37;;;;;;;;;;5012600;28;20437;-77
2022/05/21 09:33:04;;;;;;;5.30;2.57;;;;;;;;;;5032027;28;20528;-78
2022/05/21 09:35:33;;;;;;;9.23;2.83;;;;;;;;;;5032298;28;20520;-77
2022/05/21 09:38:13;;;;;;;5.70;2.30;;;;;;;;;;5032847;28;20447;-77
2022/05/21 09:40:42;;;;;;;4.93;2.20;;;;;;;;;;5011827;28;20437;-76
2022/05/21 09:46:15;;;;;;;4.90;2.40;;;;;;;;;;5017527;28;20552;-77
2022/05/21 09:48:42;;;;;;;3.80;2.30;;;;;;;;;;5014445;28;20435;-77
2022/05/21 09:51:21;;;;;;;4.53;2.13;;;;;;;;;;5012213;28;20454;-76
2022/05/21 09:53:48;;;;;;;5.20;2.57;;;;;;;;;;4994829;28;20955;-76
2022/05/21 09:56:20;;;;;;;7.50;2.90;;;;;;;;;;5012437;28;20459;-78
2022/05/21 09:58:49;;;;;;;6.27;2.30;;;;;;;;;;5012399;28;20447;-76
2022/05/21 10:01:17;;;;;;;5.17;2.47;;;;;;;;;;4995906;28;20927;-77
2022/05/21 10:03:47;;;;;;;5.13;2.77;;;;;;;;;;4996925;28;20878;-77
2022/05/21 10:06:19;;;;;;;6.40;2.50;;;;;;;;;;5016670;28;20580;-77
2022/05/21 10:11:35;;;;;;;6.80;3.00;;;;;;;;;;5027943;28;20453;-76
2022/05/21 10:14:05;;;;;;;6.97;2.70;;;;;;;;;;5014070;28;20448;-77
2022/05/21 10:16:36;;;;;;;4.63;2.73;;;;;;;;;;5031304;28;20466;-76
2022/05/21 10:19:05;;;;;;;7.70;2.80;;;;;;;;;;5031807;28;20450;-76
2022/05/21 10:21:36;;;;;;;5.37;2.90;;;;;;;;;;5029712;28;20477;-79
2022/05/21 10:24:07;;;;;;;4.70;2.80;;;;;;;;;;5013794;28;20442;-77
2022/05/21 10:26:43;;;;;;;4.70;3.00;;;;;;;;;;5013387;28;20501;-77
2022/05/21 10:29:20;;;;;;;6.33;3.13;;;;;;;;;;5017010;28;20509;-76
2022/05/21 10:31:51;;;;;;;4.70;2.50;;;;;;;;;;5018414;28;20444;-75
2022/05/21 10:34:26;;;;;;;5.73;3.10;;;;;;;;;;4991459;28;20835;-76
2022/05/21 10:36:58;;;;;;;4.30;2.20;;;;;;;;;;4991572;28;20475;-76
2022/05/21 10:39:33;;;;;;;4.50;2.20;;;;;;;;;;4992042;28;20439;-78
2022/05/21 10:42:13;;;;;;;5.13;2.13;;;;;;;;;;4992198;28;20435;-77
2022/05/21 10:44:46;;;;;;;3.87;2.40;;;;;;;;;;4999651;28;20458;-78
2022/05/21 10:47:20;;;;;;;5.00;2.40;;;;;;;;;;5013265;28;20820;-77
2022/05/21 10:49:57;;;;;;;5.77;2.47;;;;;;;;;;5012727;28;20667;-78
2022/05/21 10:52:29;;;;;;;6.00;2.23;;;;;;;;;;5010659;28;20430;-75
2022/05/21 10:55:03;;;;;;;3.93;2.00;;;;;;;;;;5015015;28;20439;-78
2022/05/21 10:57:38;;;;;;;4.07;2.50;;;;;;;;;;4993396;28;20470;-77
2022/05/21 11:00:07;;;;;;;6.90;2.93;;;;;;;;;;5011009;28;20447;-76
2022/05/21 11:02:59;;;;;;;7.37;2.80;;;;;;;;;;4993525;28;20449;-76
2022/05/21 11:05:35;;;;;;;7.17;2.73;;;;;;;;;;5011136;28;20487;-76
2022/05/21 11:08:06;;;;;;;5.27;2.40;;;;;;;;;;5012522;28;20454;-77
2022/05/21 11:10:36;;;;;;;4.40;2.67;;;;;;;;;;5013032;28;20778;-77
2022/05/21 11:13:08;;;;;;;5.00;2.67;;;;;;;;;;5015646;28;21010;-76
2022/05/21 11:15:41;;;;;;;7.23;3.60;;;;;;;;;;4999888;28;20450;-77
2022/05/21 11:18:13;;;;;;;4.13;2.60;;;;;;;;;;4994062;28;20449;-77
2022/05/21 11:20:46;;;;;;;5.60;3.17;;;;;;;;;;5009952;28;21000;-77
2022/05/21 11:23:14;;;;;;;4.53;2.23;;;;;;;;;;5010619;28;21000;-78
2022/05/21 11:25:44;;;;;;;6.00;3.07;;;;;;;;;;4993676;28;20522;-77
2022/05/21 11:28:17;;;;;;;5.13;2.33;;;;;;;;;;5010229;28;20439;-77
2022/05/21 11:30:44;;;;;;;4.87;2.70;;;;;;;;;;5011716;28;20458;-77
2022/05/21 11:38:46;;;;;;;8.90;2.73;;;;;;;;;;5015133;28;20552;-76
2022/05/21 11:44:55;;;;;;;4.30;2.03;;;;;;;;;;4980127;28;20451;-76
2022/05/21 11:46:49;;;;;;;5.57;2.50;;;;;;;;;;4995193;28;20541;-76
2022/05/21 11:49:30;;;;;;;5.50;2.47;;;;;;;;;;5010504;28;20677;-78
2022/05/21 11:51:58;;;;;;;4.03;2.30;;;;;;;;;;5010238;28;20466;-77
2022/05/21 11:54:40;;;;;;;6.43;2.70;;;;;;;;;;5012107;28;20446;-76
2022/05/21 11:57:07;;;;;;;5.83;2.97;;;;;;;;;;4999198;28;20462;-77
2022/05/21 11:59:49;;;;;;;7.07;3.10;;;;;;;;;;5016492;28;20450;-77
2022/05/21 12:02:22;;;;;;;5.27;2.47;;;;;;;;;;5011734;28;20435;-76
2022/05/21 12:04:52;;;;;;;5.30;2.57;;;;;;;;;;5009474;28;20891;-77
2022/05/21 12:07:34;;;;;;;5.63;2.50;;;;;;;;;;5009987;28;20455;-76
2022/05/21 12:10:04;;;;;;;9.67;3.07;;;;;;;;;;4995181;28;20513;-77
2022/05/21 12:12:31;;;;;;;4.50;2.40;;;;;;;;;;5009829;28;20458;-76
2022/05/21 12:15:13;;;;;;;6.33;2.30;;;;;;;;;;5011265;28;20550;-79
2022/05/21 12:17:46;;;;;;;6.80;2.63;;;;;;;;;;4994957;28;20497;-76
2022/05/21 12:20:16;;;;;;;8.03;3.03;;;;;;;;;;4998401;28;20461;-77
2022/05/21 12:22:52;;;;;;;7.17;2.73;;;;;;;;;;5016262;28;20434;-76
2022/05/21 12:25:34;;;;;;;4.57;2.40;;;;;;;;;;4972531;28;20451;-76
2022/05/21 12:28:04;;;;;;;6.90;2.30;;;;;;;;;;4988907;28;20846;-77
2022/05/21 12:30:32;;;;;;;7.60;3.00;;;;;;;;;;4973271;28;20790;-77
2022/05/21 12:33:00;;;;;;;7.33;3.10;;;;;;;;;;4990476;28;20442;-77
2022/05/21 12:35:33;;;;;;;6.93;2.73;;;;;;;;;;4995376;28;20940;-76
2022/05/21 12:38:05;;;;;;;5.43;2.30;;;;;;;;;;4994056;28;20439;-76
2022/05/21 12:40:39;;;;;;;6.63;2.33;;;;;;;;;;5011968;28;20446;-78
2022/05/21 12:43:09;;;;;;;5.47;2.50;;;;;;;;;;5018769;28;20927;-77
2022/05/21 12:45:39;;;;;;;6.90;2.70;;;;;;;;;;5001766;28;20478;-77
2022/05/21 12:48:10;;;;;;;5.37;2.40;;;;;;;;;;5012771;28;20527;-78
2022/05/21 12:50:46;;;;;;;4.27;2.20;;;;;;;;;;4995624;28;20942;-76
2022/05/21 12:53:14;;;;;;;5.53;2.30;;;;;;;;;;4995856;28;20449;-77
2022/05/21 12:55:41;;;;;;;5.97;2.97;;;;;;;;;;4996256;28;20455;-77
2022/05/21 12:58:17;;;;;;;4.00;2.30;;;;;;;;;;5013945;28;20462;-78
2022/05/21 13:00:48;;;;;;;3.93;1.93;;;;;;;;;;5015466;28;20450;-76
2022/05/21 13:03:16;;;;;;;4.13;1.90;;;;;;;;;;5016265;28;20447;-77
2022/05/21 13:05:49;;;;;;;4.53;2.13;;;;;;;;;;5002219;28;20474;-77
2022/05/21 13:08:16;;;;;;;4.07;2.00;;;;;;;;;;5017601;28;20530;-76
2022/05/21 13:10:53;;;;;;;5.80;2.37;;;;;;;;;;5012784;28;20461;-76
2022/05/21 13:13:21;;;;;;;5.90;2.90;;;;;;;;;;5012569;28;20440;-77
2022/05/21 13:15:58;;;;;;;4.83;2.60;;;;;;;;;;4995532;28;20441;-77
2022/05/21 13:18:30;;;;;;;4.20;2.30;;;;;;;;;;5013597;28;20442;-78
2022/05/21 13:21:03;;;;;;;6.77;2.53;;;;;;;;;;5013799;28;20470;-76
2022/05/21 13:23:43;;;;;;;7.77;2.77;;;;;;;;;;5014898;28;20439;-77
2022/05/21 13:26:15;;;;;;;5.70;2.23;;;;;;;;;;5016514;28;21005;-76
2022/05/21 13:28:43;;;;;;;3.37;2.07;;;;;;;;;;5019167;28;20431;-79
2022/05/21 13:31:16;;;;;;;7.03;2.70;;;;;;;;;;5015469;28;20448;-77
2022/05/21 13:33:49;;;;;;;4.17;2.20;;;;;;;;;;5012573;28;20435;-77
2022/05/21 13:36:18;;;;;;;4.40;2.10;;;;;;;;;;5012190;28;20454;-76
2022/05/21 13:38:46;;;;;;;5.00;2.73;;;;;;;;;;5013087;28;20446;-77
2022/05/21 13:41:14;;;;;;;8.60;2.57;;;;;;;;;;5013117;28;20456;-77
2022/05/21 13:43:43;;;;;;;3.63;2.20;;;;;;;;;;5013541;28;20465;-77
2022/05/21 13:46:11;;;;;;;8.03;2.23;;;;;;;;;;5014343;28;20855;-77
2022/05/21 13:48:41;;;;;;;6.17;2.30;;;;;;;;;;5016423;28;20445;-77
2022/05/21 13:51:12;;;;;;;3.70;2.07;;;;;;;;;;5001267;28;20438;-77
2022/05/21 13:53:39;;;;;;;4.70;2.20;;;;;;;;;;5013494;28;20446;-77
2022/05/21 13:56:08;;;;;;;2.67;1.80;;;;;;;;;;5012028;28;20466;-77
2022/05/21 13:58:36;;;;;;;6.20;2.67;;;;;;;;;;5012412;28;20493;-76
2022/05/21 14:01:05;;;;;;;6.60;2.20;;;;;;;;;;5012432;28;20808;-77
2022/05/21 14:03:43;;;;;;;3.60;2.10;;;;;;;;;;5012256;28;20471;-77
2022/05/21 14:06:16;;;;;;;4.23;2.43;;;;;;;;;;4995994;28;20490;-77
2022/05/21 14:08:50;;;;;;;4.10;2.40;;;;;;;;;;5013953;28;20863;-77
2022/05/21 14:11:18;;;;;;;5.43;2.03;;;;;;;;;;5017113;28;20439;-77
2022/05/21 14:13:47;;;;;;;4.93;2.13;;;;;;;;;;5017923;28;20917;-77
2022/05/21 14:16:25;;;;;;;6.43;3.10;;;;;;;;;;5012653;28;20811;-77
2022/05/21 14:19:01;;;;;;;4.63;2.70;;;;;;;;;;5011567;28;20819;-77
2022/05/21 14:21:29;;;;;;;3.53;1.80;;;;;;;;;;5011430;28;20850;-77
2022/05/21 14:24:08;;;;;;;5.30;2.67;;;;;;;;;;5012015;28;20435;-77
2022/05/21 14:26:35;;;;;;;4.43;2.27;;;;;;;;;;4993582;28;20490;-77
2022/05/21 14:29:17;;;;;;;4.50;2.23;;;;;;;;;;5016177;28;20950;-78
2022/05/21 14:31:46;;;;;;;5.67;2.07;;;;;;;;;;5002919;28;20789;-76
2022/05/21 14:34:20;;;;;;;9.83;2.30;;;;;;;;;;5028225;28;20862;-78
2022/05/21 14:36:51;;;;;;;5.03;2.10;;;;;;;;;;5013413;28;20462;-76
2022/05/21 14:39:18;;;;;;;2.80;2.03;;;;;;;;;;5031183;28;20524;-77
2022/05/21 14:41:48;;;;;;;4.00;2.60;;;;;;;;;;5014345;28;20452;-77
2022/05/21 14:44:16;;;;;;;3.13;1.90;;;;;;;;;;5012418;28;20454;-76
2022/05/21 14:49:25;;;;;;;4.43;1.97;;;;;;;;;;5012286;28;20925;-77
2022/05/21 14:54:36;;;;;;;4.20;2.07;;;;;;;;;;5016729;28;20430;-76
2022/05/21 14:57:03;;;;;;;4.20;2.10;;;;;;;;;;4990835;28;20463;-77
2022/05/21 14:59:31;;;;;;;3.17;1.93;;;;;;;;;;4991308;28;20444;-77
2022/05/21 15:01:58;;;;;;;4.90;2.50;;;;;;;;;;4991318;28;20970;-78
2022/05/21 15:04:26;;;;;;;4.63;2.00;;;;;;;;;;4991861;28;20432;-78
2022/05/21 15:06:54;;;;;;;5.57;2.10;;;;;;;;;;4993811;28;21074;-76
2022/05/21 15:09:21;;;;;;;2.63;2.17;;;;;;;;;;5012723;28;20439;-78
2022/05/21 15:11:48;;;;;;;4.80;2.00;;;;;;;;;;5012742;28;20810;-76
2022/05/21 15:14:16;;;;;;;3.50;1.83;;;;;;;;;;5016622;28;20447;-77
2022/05/21 15:16:43;;;;;;;3.03;1.80;;;;;;;;;;5017472;28;20450;-76
2022/05/21 15:19:10;;;;;;;4.00;2.40;;;;;;;;;;5029045;28;20440;-75
2022/05/21 15:21:40;;;;;;;4.70;2.20;;;;;;;;;;5029724;28;20470;-76
2022/05/21 15:24:09;;;;;;;5.20;2.20;;;;;;;;;;5030272;28;20441;-76
2022/05/21 15:26:36;;;;;;;3.03;1.90;;;;;;;;;;5030418;28;20489;-76
2022/05/21 15:29:03;;;;;;;3.30;1.80;;;;;;;;;;5028066;28;20438;-76
2022/05/21 15:31:31;;;;;;;2.87;1.97;;;;;;;;;;5014814;28;20942;-77
2022/05/21 15:34:00;;;;;;;3.83;2.03;;;;;;;;;;4999518;28;20521;-76
2022/05/21 15:36:27;;;;;;;4.97;2.10;;;;;;;;;;5024531;28;20469;-77